Airfield :
LOGIN :

Register | Disclaimer

   EN    FR    IT 

 










Legend :    VFR   Marginal VFR   IFR   Intensive IFR   Very Intensive IFR
Visi :
Ceiling :
>= 8 km
>= 3000ft
5 to 8 km
1000 to 3000 ft
1500m to 5 km
500 to 1000 ft
800 to 1500m
200 to 500 ft
< 800m
< 200 ft
Symbols :   Thunderstorms  Fog  Heavy snow  Heavy precipitations  Wind > 20 kt
SIGMETs :     Misc.  Thunderstorms  Icing  Turbulence  Mountain Waves  Volcanic Ashes






- Airport Elevation : 266 ft
- IATA code : NCL


EGNT - Newcastle

CURRENT METAR :
  • 032050Z 25005KT 9999 FEW035 13/07 Q1016

EXPIRED METARs :
  • 032020Z 26008KT 9999 FEW035 13/08 Q1016
  • 031950Z 27007KT 9999 FEW035 13/08 Q1016
  • 031920Z 28007KT 9999 FEW035 15/08 Q1015
  • 031850Z 27010KT 9999 FEW035 15/08 Q1015
  • 031820Z 27011KT 9999 FEW035 15/07 Q1015

TAF TAF EGNT
Valid from the 03 at 18:00 until the 04 at 18:00 UTC


031655Z 0318/0418 26009KT 9999 FEW045
BECMG 0407/0411 20012KT
TEMPO 0408/0418 6000 RA
TEMPO 0411/0418 20018G28KT
ATIS : +44 191 214 3400



MET'MAP, your aeronautical weather chart ! - Copyright ORBIFLY December 2007 - Disclaimer

ORBIFLY MET'MAP TEAM :

Programming & Development : Alexandra Zaïnal
Concept & original design : Baudouin d'Aumeries
Assistance for programming : Marc-Olivier Méhu
Technical & hardware support : Manuel Goepfert

Contact : metmap@orbifly.com




SOURCES & CREDITS :

   NOAA